Seguin, Texas
Current Conditions -  °F | °C
As of 5:51 AM on Sunday 25 Jan 2015 (Local Time) from KBAZ Reporting Station
Clear Clear  
Wind Chill: 37°   Ceiling: Unl
Heat Index: 42°   Visibility: 10mi
Dew Point: 36°   Wind: 9mph
Humidity: 79%   Direction: 270°W
Pressure: 30.03"   Gusts: NA
Location:  29.57°N, 97.96°W
Report Text: KBAZ 251151Z AUTO 27008KT 10SM CLR 06/02 A3003 RMK AO2 SLP167 T00560022 10078 20022 56010
Loading
Personal Weather Stations






























Interactive Weather Map New forecast layout! Learn more

10-Day Weather Forecast

Advertisements
Track Severe Weather on mobile